createdAt,value
2019-03-03T00:01:33.939Z,51.48
2019-03-03T00:04:02.954Z,48.55
2019-03-03T00:06:31.972Z,44.13
2019-03-03T00:09:01.574Z,47.67
2019-03-03T00:11:30.355Z,54.00
2019-03-03T00:13:59.412Z,51.45
2019-03-03T00:16:28.444Z,49.13
2019-03-03T00:18:57.512Z,48.87
2019-03-03T00:21:27.213Z,52.65
2019-03-03T00:23:56.348Z,60.35
2019-03-03T00:26:25.662Z,50.45
2019-03-03T00:28:54.947Z,48.58
2019-03-03T00:31:32.434Z,47.70
2019-03-03T00:34:01.437Z,47.08
2019-03-03T00:36:34.541Z,51.48
2019-03-03T00:39:09.376Z,60.40
2019-03-03T00:41:43.600Z,58.23
2019-03-03T00:44:18.437Z,56.85
2019-03-03T00:48:56.407Z,56.23
2019-03-03T00:51:33.083Z,54.65
2019-03-03T00:55:12.711Z,54.05
2019-03-03T00:58:19.641Z,48.75
2019-03-03T01:00:53.818Z,53.02
2019-03-03T01:03:34.750Z,55.63
2019-03-03T01:06:11.022Z,55.25
2019-03-03T01:09:11.564Z,53.35
2019-03-03T01:12:02.954Z,57.65
2019-03-03T01:14:36.917Z,51.50
2019-03-03T01:17:11.896Z,51.60
2019-03-03T01:19:48.448Z,47.62
2019-03-03T01:22:27.407Z,48.25
2019-03-03T01:24:58.107Z,53.87
2019-03-03T01:27:28.083Z,52.08
2019-03-03T01:29:57.424Z,47.55
2019-03-03T01:32:26.890Z,48.17
2019-03-03T01:34:56.036Z,54.85
2019-03-03T01:37:25.667Z,51.92
2019-03-03T01:39:54.843Z,49.23
2019-03-03T01:42:23.932Z,47.53
2019-03-03T01:44:52.896Z,48.95
2019-03-03T01:47:21.832Z,52.88
2019-03-03T01:49:51.020Z,48.63
2019-03-03T01:52:21.163Z,43.68
2019-03-03T01:54:50.243Z,47.17
2019-03-03T01:57:19.915Z,43.65
2019-03-03T01:59:48.827Z,44.75
2019-03-03T02:02:18.256Z,50.33
2019-03-03T02:04:47.311Z,43.60
2019-03-03T02:07:17.704Z,44.25
2019-03-03T02:09:46.994Z,48.00
2019-03-03T02:12:16.163Z,43.65
2019-03-03T02:14:45.304Z,43.95
2019-03-03T02:17:14.971Z,42.75
2019-03-03T02:19:44.077Z,43.87
2019-03-03T02:22:13.169Z,49.15
2019-03-03T02:24:42.351Z,46.25
2019-03-03T02:27:11.600Z,46.83
2019-03-03T02:29:40.951Z,47.73
2019-03-03T02:32:10.147Z,42.80
2019-03-03T02:34:39.836Z,44.55
2019-03-03T02:37:09.520Z,45.58
2019-03-03T02:39:38.686Z,42.70
2019-03-03T02:42:07.879Z,42.58
2019-03-03T02:44:36.908Z,41.63
2019-03-03T02:47:05.973Z,41.42
2019-03-03T02:49:34.856Z,43.02
2019-03-03T02:52:04.209Z,44.55
2019-03-03T02:54:33.737Z,46.53
2019-03-03T02:57:02.770Z,43.95
2019-03-03T02:59:31.965Z,41.40
2019-03-03T03:02:02.967Z,42.65
2019-03-03T03:04:32.269Z,40.70
2019-03-03T03:07:06.571Z,46.37
2019-03-03T03:09:40.771Z,41.73
2019-03-03T03:12:15.079Z,43.52
2019-03-03T03:14:49.070Z,41.23
2019-03-03T03:17:56.419Z,39.83
2019-03-03T03:20:36.579Z,45.58
2019-03-03T03:23:25.813Z,42.15
2019-03-03T03:27:07.373Z,44.98
2019-03-03T03:29:55.732Z,40.58
2019-03-03T03:32:45.094Z,43.48
2019-03-03T03:35:19.291Z,44.85
2019-03-03T03:37:52.685Z,43.95
2019-03-03T03:40:26.892Z,46.55
2019-03-03T03:43:03.364Z,39.70
2019-03-03T03:47:45.269Z,57.62
2019-03-03T03:50:26.507Z,70.80
2019-03-03T03:53:00.571Z,67.42
2019-03-03T03:55:34.895Z,59.25
2019-03-03T03:58:08.996Z,60.03
2019-03-03T04:00:43.406Z,62.58
2019-03-03T04:04:21.044Z,62.13
2019-03-03T04:07:55.750Z,64.37
2019-03-03T04:10:35.936Z,61.75
2019-03-03T04:13:14.567Z,58.83
2019-03-03T04:15:58.464Z,59.77
2019-03-03T04:18:42.406Z,50.05
2019-03-03T04:21:15.638Z,53.02
2019-03-03T04:23:55.828Z,62.15
2019-03-03T04:26:32.915Z,52.60
2019-03-03T04:30:08.544Z,57.27
2019-03-03T04:32:47.618Z,53.08
2019-03-03T04:35:20.948Z,58.20
2019-03-03T04:37:57.604Z,55.85
2019-03-03T04:40:32.828Z,52.15
2019-03-03T04:43:10.093Z,53.33
2019-03-03T04:46:47.420Z,55.45
2019-03-03T04:49:28.459Z,55.12
2019-03-03T04:52:09.876Z,63.78
2019-03-03T04:54:43.488Z,57.62
2019-03-03T04:57:22.359Z,57.43
2019-03-03T05:01:59.572Z,61.23
2019-03-03T05:04:35.370Z,57.78
2019-03-03T05:07:11.536Z,59.65
2019-03-03T05:09:46.583Z,59.77
2019-03-03T05:12:24.072Z,55.30
2019-03-03T05:14:54.984Z,54.73
2019-03-03T05:18:27.801Z,58.38
2019-03-03T05:20:56.864Z,55.63
2019-03-03T05:23:25.848Z,57.27
2019-03-03T05:25:54.772Z,55.50
2019-03-03T05:28:24.263Z,60.50
2019-03-03T05:30:53.081Z,58.48
2019-03-03T05:33:22.149Z,57.50
2019-03-03T05:35:51.459Z,58.45
2019-03-03T05:38:20.706Z,57.83
2019-03-03T05:40:50.067Z,54.50
2019-03-03T05:43:19.135Z,52.75
2019-03-03T05:45:48.298Z,61.10
2019-03-03T05:48:17.814Z,54.77
2019-03-03T05:50:47.251Z,53.40
2019-03-03T05:53:16.524Z,57.20
2019-03-03T05:55:45.828Z,51.65
2019-03-03T05:58:14.748Z,54.30
2019-03-03T06:00:43.900Z,54.85
2019-03-03T06:03:13.202Z,51.73
2019-03-03T06:05:42.904Z,51.58
2019-03-03T06:08:12.215Z,52.98
2019-03-03T06:10:41.714Z,51.13
2019-03-03T06:13:10.918Z,51.65
2019-03-03T06:15:41.347Z,51.13
2019-03-03T06:18:11.064Z,57.35
2019-03-03T06:20:40.242Z,50.73
2019-03-03T06:23:09.935Z,52.78
2019-03-03T06:25:38.943Z,56.00
2019-03-03T06:28:08.168Z,53.25
2019-03-03T06:30:37.342Z,54.38
2019-03-03T06:33:06.829Z,51.08
2019-03-03T06:35:36.372Z,54.15
2019-03-03T06:38:06.344Z,56.53
2019-03-03T06:40:35.452Z,53.73
2019-03-03T06:43:04.623Z,63.33
2019-03-03T06:45:33.889Z,66.55
2019-03-03T06:48:02.884Z,58.45
2019-03-03T06:50:32.004Z,59.30
2019-03-03T06:53:01.366Z,57.03
2019-03-03T06:55:30.764Z,54.33
2019-03-03T06:58:00.195Z,60.03
2019-03-03T07:00:29.923Z,66.02
2019-03-03T07:02:58.890Z,63.60
2019-03-03T07:05:27.708Z,61.13
2019-03-03T07:07:56.867Z,59.65
2019-03-03T07:10:26.036Z,61.15
2019-03-03T07:12:55.480Z,62.27
2019-03-03T07:15:24.876Z,62.33
2019-03-03T07:17:53.844Z,63.78
2019-03-03T07:20:23.072Z,71.75
2019-03-03T07:22:52.335Z,67.32
2019-03-03T07:25:21.475Z,73.15
2019-03-03T07:27:51.536Z,65.52
2019-03-03T07:30:21.053Z,69.12
2019-03-03T07:32:54.663Z,66.72
2019-03-03T07:35:23.559Z,77.37
2019-03-03T07:37:53.247Z,66.07
2019-03-03T07:40:22.390Z,67.97
2019-03-03T07:42:51.578Z,74.35
2019-03-03T07:45:20.655Z,82.33
2019-03-03T07:47:50.615Z,108.75
2019-03-03T07:50:20.626Z,120.17
2019-03-03T07:52:49.686Z,133.63
2019-03-03T07:55:18.719Z,145.55
2019-03-03T07:57:47.703Z,152.65
2019-03-03T08:00:17.549Z,148.53
2019-03-03T08:02:46.852Z,150.32
2019-03-03T08:05:16.035Z,154.40
2019-03-03T08:07:45.076Z,134.15
2019-03-03T08:10:14.362Z,128.93
2019-03-03T08:12:43.504Z,131.10
2019-03-03T08:15:12.828Z,114.77
2019-03-03T08:17:42.214Z,105.70
2019-03-03T08:20:11.324Z,105.55
2019-03-03T08:22:40.451Z,106.92
2019-03-03T08:25:09.395Z,94.00
2019-03-03T08:27:38.979Z,90.80
2019-03-03T08:30:08.638Z,83.58
2019-03-03T08:32:38.024Z,71.72
2019-03-03T08:35:09.726Z,68.02
2019-03-03T08:37:39.465Z,66.42
2019-03-03T08:40:09.203Z,59.40
2019-03-03T08:42:43.743Z,54.25
2019-03-03T08:45:36.107Z,54.27
2019-03-03T08:48:19.157Z,89.25
2019-03-03T08:50:53.360Z,78.20
2019-03-03T08:53:29.348Z,58.90
2019-03-03T08:56:38.955Z,59.95
2019-03-03T08:59:20.597Z,57.08
2019-03-03T09:01:54.459Z,56.83
2019-03-03T09:04:27.884Z,52.20
2019-03-03T09:07:35.719Z,50.58
2019-03-03T09:10:11.888Z,52.40
2019-03-03T09:12:45.105Z,58.92
2019-03-03T09:15:22.939Z,52.98
2019-03-03T09:17:56.471Z,50.78
2019-03-03T09:20:36.860Z,51.92
2019-03-03T09:23:41.321Z,50.95
2019-03-03T09:27:19.293Z,49.25
2019-03-03T09:29:52.344Z,48.70
2019-03-03T09:32:28.719Z,49.73
2019-03-03T09:35:20.017Z,60.25
2019-03-03T09:37:57.720Z,71.12
2019-03-03T09:40:33.026Z,47.58
2019-03-03T09:43:07.487Z,49.15
2019-03-03T09:45:41.846Z,52.20
2019-03-03T09:48:16.248Z,45.50
2019-03-03T09:50:51.139Z,49.83
2019-03-03T09:53:59.436Z,56.92
2019-03-03T09:58:37.860Z,50.17
2019-03-03T10:01:15.031Z,42.40
2019-03-03T10:03:51.763Z,44.58
2019-03-03T10:06:25.669Z,47.30
2019-03-03T10:09:04.865Z,46.10
2019-03-03T10:11:38.767Z,40.35
2019-03-03T10:16:16.540Z,41.95
2019-03-03T10:18:49.721Z,44.00
2019-03-03T10:23:26.775Z,40.80
2019-03-03T10:27:04.418Z,37.63
2019-03-03T10:29:48.363Z,36.60
2019-03-03T10:32:36.822Z,56.50
2019-03-03T10:35:10.889Z,143.22
2019-03-03T10:38:49.296Z,152.40
2019-03-03T10:41:25.405Z,33.02
2019-03-03T10:44:59.172Z,38.80
2019-03-03T10:47:38.779Z,36.25
2019-03-03T10:50:13.345Z,33.40
2019-03-03T10:52:50.470Z,39.18
2019-03-03T10:55:24.744Z,35.50
2019-03-03T10:58:13.875Z,35.95
2019-03-03T11:00:48.457Z,36.00
2019-03-03T11:03:37.599Z,38.00
2019-03-03T11:06:12.362Z,37.50
2019-03-03T11:08:47.495Z,40.25
2019-03-03T11:11:24.803Z,29.95
2019-03-03T11:14:15.406Z,35.40
2019-03-03T11:16:55.727Z,48.98
2019-03-03T11:19:30.699Z,54.25
2019-03-03T11:22:04.761Z,42.00
2019-03-03T11:24:58.980Z,44.20
2019-03-03T11:27:32.193Z,61.90
2019-03-03T11:30:08.460Z,46.98
2019-03-03T11:32:43.730Z,38.75
2019-03-03T11:35:20.687Z,41.50
2019-03-03T11:37:54.122Z,36.70
2019-03-03T11:40:28.193Z,41.15
2019-03-03T11:43:04.024Z,42.40
2019-03-03T11:45:42.349Z,44.18
2019-03-03T11:48:19.816Z,37.80
2019-03-03T11:50:56.517Z,35.00
2019-03-03T11:54:32.935Z,40.08
2019-03-03T11:57:08.561Z,36.73
2019-03-03T11:59:43.447Z,33.28
2019-03-03T12:02:17.972Z,32.78
2019-03-03T12:04:51.020Z,34.98
2019-03-03T12:07:59.619Z,31.48
2019-03-03T12:10:39.773Z,35.08
2019-03-03T12:13:26.025Z,40.67
2019-03-03T12:16:00.478Z,39.83
2019-03-03T12:18:36.480Z,41.02
2019-03-03T12:22:09.285Z,35.38
2019-03-03T12:24:43.413Z,35.83
2019-03-03T12:27:25.700Z,36.17
2019-03-03T12:30:34.092Z,32.75
2019-03-03T12:33:11.231Z,36.42
2019-03-03T12:35:47.116Z,36.00
2019-03-03T12:40:28.762Z,33.02
2019-03-03T12:43:02.995Z,31.87
2019-03-03T12:46:40.575Z,32.35
2019-03-03T12:50:12.236Z,41.70
2019-03-03T12:53:02.077Z,36.60
2019-03-03T12:56:06.719Z,38.63
2019-03-03T12:58:44.299Z,32.42
2019-03-03T13:01:32.929Z,29.07
2019-03-03T13:05:12.921Z,34.43
2019-03-03T13:07:46.270Z,31.52
2019-03-03T13:10:24.563Z,30.97
2019-03-03T13:12:58.996Z,29.48
2019-03-03T13:15:41.667Z,27.22
2019-03-03T13:18:18.982Z,29.87
2019-03-03T13:20:54.643Z,33.60
2019-03-03T13:23:31.458Z,28.52
2019-03-03T13:26:05.427Z,31.05
2019-03-03T13:29:14.939Z,28.75
2019-03-03T13:32:50.409Z,28.87
2019-03-03T13:35:27.346Z,25.65
2019-03-03T13:38:01.891Z,22.93
2019-03-03T13:41:36.249Z,23.05
2019-03-03T13:44:05.558Z,21.73
2019-03-03T13:46:35.659Z,24.30
2019-03-03T13:49:05.194Z,23.10
2019-03-03T13:51:34.545Z,24.50
2019-03-03T13:54:06.427Z,24.18
2019-03-03T13:56:33.348Z,18.80
2019-03-03T13:59:02.584Z,22.85
2019-03-03T14:01:31.847Z,16.32
2019-03-03T14:04:00.778Z,17.30
2019-03-03T14:06:30.107Z,15.70
2019-03-03T14:08:59.558Z,15.98
2019-03-03T14:11:30.206Z,17.90
2019-03-03T14:13:59.560Z,18.80
2019-03-03T14:16:28.707Z,17.40
2019-03-03T14:18:57.502Z,18.37
2019-03-03T14:21:26.799Z,15.08
2019-03-03T14:23:55.967Z,17.23
2019-03-03T14:26:25.499Z,15.00
2019-03-03T14:28:55.366Z,17.65
2019-03-03T14:31:24.401Z,17.62
2019-03-03T14:33:53.699Z,17.82
2019-03-03T14:36:22.940Z,19.15
2019-03-03T14:38:52.071Z,17.62
2019-03-03T14:41:21.095Z,20.45
2019-03-03T14:43:50.603Z,20.55
2019-03-03T14:46:19.697Z,21.70
2019-03-03T14:48:48.487Z,20.30
2019-03-03T14:51:17.717Z,20.50
2019-03-03T14:53:46.848Z,20.57
2019-03-03T14:56:16.223Z,17.57
2019-03-03T14:58:45.419Z,20.20
2019-03-03T15:01:14.736Z,14.60
2019-03-03T15:03:43.660Z,16.65
2019-03-03T15:06:13.425Z,16.02
2019-03-03T15:08:42.651Z,16.10
2019-03-03T15:11:12.236Z,15.53
2019-03-03T15:13:41.651Z,16.00
2019-03-03T15:16:10.659Z,15.48
2019-03-03T15:18:39.775Z,15.53
2019-03-03T15:21:10.160Z,17.00
2019-03-03T15:23:39.183Z,13.95
2019-03-03T15:26:08.931Z,16.00
2019-03-03T15:28:38.337Z,13.60
2019-03-03T15:31:07.505Z,15.48
2019-03-03T15:33:36.702Z,14.28
2019-03-03T15:36:05.877Z,41.18
2019-03-03T15:38:35.153Z,25.17
2019-03-03T15:41:04.039Z,18.30
2019-03-03T15:43:33.312Z,15.20
2019-03-03T15:46:03.075Z,14.50
2019-03-03T15:48:32.123Z,14.25
2019-03-03T15:51:01.464Z,14.90
2019-03-03T15:53:30.322Z,15.00
2019-03-03T15:55:59.380Z,15.95
2019-03-03T15:58:28.433Z,21.27
2019-03-03T16:00:57.946Z,17.77
2019-03-03T16:03:27.007Z,17.50
2019-03-03T16:05:57.031Z,18.90
2019-03-03T16:08:27.521Z,25.75
2019-03-03T16:10:57.945Z,19.80
2019-03-03T16:13:27.576Z,19.23
2019-03-03T16:15:56.587Z,23.65
2019-03-03T16:18:25.459Z,23.60
2019-03-03T16:20:54.775Z,24.50
2019-03-03T16:23:23.951Z,26.65
2019-03-03T16:25:53.387Z,25.27
2019-03-03T16:28:22.808Z,25.23
2019-03-03T16:30:51.951Z,25.52
2019-03-03T16:33:21.159Z,26.23
2019-03-03T16:35:50.119Z,36.83
2019-03-03T16:38:19.277Z,26.15
2019-03-03T16:40:48.373Z,23.65
2019-03-03T16:43:17.244Z,23.30
2019-03-03T16:45:46.363Z,23.55
2019-03-03T16:48:15.470Z,25.27
2019-03-03T16:50:44.859Z,22.50
2019-03-03T16:53:13.966Z,22.55
2019-03-03T16:55:43.325Z,23.75
2019-03-03T16:58:13.075Z,28.07
2019-03-03T17:00:42.607Z,25.72
2019-03-03T17:03:11.782Z,26.12
2019-03-03T17:05:41.011Z,33.48
2019-03-03T17:08:10.186Z,31.90
2019-03-03T17:10:39.172Z,31.10
2019-03-03T17:13:09.126Z,35.68
2019-03-03T17:15:38.179Z,32.53
2019-03-03T17:18:07.128Z,34.30
2019-03-03T17:20:36.249Z,29.90
2019-03-03T17:23:05.224Z,33.83
2019-03-03T17:25:34.509Z,32.50
2019-03-03T17:28:03.761Z,28.90
2019-03-03T17:30:32.961Z,41.65
2019-03-03T17:33:02.064Z,49.38
2019-03-03T17:35:31.051Z,68.90
2019-03-03T17:38:00.396Z,37.05
2019-03-03T17:40:30.477Z,40.83
2019-03-03T17:43:00.052Z,36.13
2019-03-03T17:45:28.975Z,34.08
2019-03-03T17:47:58.189Z,24.92
2019-03-03T17:50:28.324Z,28.32
2019-03-03T17:52:57.403Z,27.90
2019-03-03T17:55:26.217Z,22.45
2019-03-03T17:57:55.971Z,24.07
2019-03-03T18:00:25.762Z,32.08
2019-03-03T18:02:55.273Z,30.40
2019-03-03T18:05:24.197Z,27.40
2019-03-03T18:07:53.165Z,26.87
2019-03-03T18:10:22.288Z,27.05
2019-03-03T18:12:51.393Z,26.07
2019-03-03T18:15:20.732Z,30.02
2019-03-03T18:17:50.661Z,26.15
2019-03-03T18:20:19.517Z,24.87
2019-03-03T18:22:48.528Z,25.55
2019-03-03T18:25:17.790Z,22.95
2019-03-03T18:27:46.983Z,22.42
2019-03-03T18:30:17.869Z,24.98
2019-03-03T18:32:46.818Z,22.13
2019-03-03T18:35:16.014Z,20.48
2019-03-03T18:37:45.266Z,30.95
2019-03-03T18:40:15.744Z,22.67
2019-03-03T18:42:44.737Z,21.20
2019-03-03T18:45:14.219Z,22.40
2019-03-03T18:47:43.146Z,21.45
2019-03-03T18:50:13.624Z,23.65
2019-03-03T18:52:42.676Z,25.32
2019-03-03T18:55:12.073Z,22.73
2019-03-03T18:57:41.774Z,24.98
2019-03-03T19:00:13.862Z,21.82
2019-03-03T19:02:43.017Z,24.70
2019-03-03T19:05:12.112Z,21.65
2019-03-03T19:07:41.451Z,25.68
2019-03-03T19:10:13.530Z,25.08
2019-03-03T19:12:42.599Z,23.27
2019-03-03T19:15:13.675Z,22.37
2019-03-03T19:17:43.487Z,25.23
2019-03-03T19:20:13.392Z,26.02
2019-03-03T19:22:43.291Z,26.70
2019-03-03T19:25:13.040Z,22.22
2019-03-03T19:27:42.718Z,22.87
2019-03-03T19:30:17.236Z,23.73
2019-03-03T19:32:46.431Z,22.67
2019-03-03T19:35:15.404Z,24.75
2019-03-03T19:37:44.175Z,24.10
2019-03-03T19:40:13.426Z,25.35
2019-03-03T19:42:42.774Z,26.48
2019-03-03T19:45:16.118Z,24.30
2019-03-03T19:47:45.455Z,29.23
2019-03-03T19:50:14.689Z,23.62
2019-03-03T19:52:43.617Z,26.15
2019-03-03T19:55:12.551Z,29.57
2019-03-03T19:57:42.109Z,28.38
2019-03-03T20:00:14.631Z,25.52
2019-03-03T20:02:43.470Z,26.12
2019-03-03T20:05:12.632Z,32.33
2019-03-03T20:07:41.676Z,27.02
2019-03-03T20:10:10.956Z,29.57
2019-03-03T20:12:40.680Z,24.57
2019-03-03T20:15:10.423Z,33.95
2019-03-03T20:17:39.893Z,32.23
2019-03-03T20:20:11.511Z,27.48
2019-03-03T20:22:40.744Z,30.70
2019-03-03T20:25:10.137Z,32.70
2019-03-03T20:27:39.388Z,27.95
2019-03-03T20:30:10.472Z,24.20
2019-03-03T20:32:39.483Z,28.90
2019-03-03T20:35:08.906Z,38.17
2019-03-03T20:37:38.086Z,52.70
2019-03-03T20:40:09.287Z,83.15
2019-03-03T20:42:38.700Z,98.90
2019-03-03T20:45:09.211Z,104.80
2019-03-03T20:47:38.780Z,115.67
2019-03-03T20:50:09.915Z,126.00
2019-03-03T20:52:38.854Z,131.20
2019-03-03T20:55:09.842Z,157.75
2019-03-03T20:57:38.901Z,170.25
2019-03-03T21:00:11.328Z,170.38
2019-03-03T21:02:40.727Z,171.77
2019-03-03T21:05:09.836Z,174.12
2019-03-03T21:07:39.877Z,170.32
2019-03-03T21:10:10.172Z,142.98
2019-03-03T21:12:39.874Z,136.25
2019-03-03T21:15:09.439Z,145.57
2019-03-03T21:17:38.546Z,144.25
2019-03-03T21:20:09.009Z,150.03
2019-03-03T21:22:38.517Z,123.35
2019-03-03T21:25:08.124Z,103.50
2019-03-03T21:27:37.834Z,101.67
2019-03-03T21:30:10.676Z,91.30
2019-03-03T21:32:39.614Z,94.30
2019-03-03T21:35:08.800Z,99.90
2019-03-03T21:37:37.986Z,91.60
2019-03-03T21:40:08.024Z,96.17
2019-03-03T21:42:37.210Z,94.07
2019-03-03T21:45:07.048Z,82.17
2019-03-03T21:47:36.232Z,82.10
2019-03-03T21:50:05.907Z,80.30
2019-03-03T21:52:35.067Z,76.85
2019-03-03T21:55:04.144Z,80.72
2019-03-03T21:57:33.948Z,75.52
2019-03-03T22:00:03.853Z,73.92
2019-03-03T22:02:32.871Z,74.75
2019-03-03T22:05:02.663Z,70.72
2019-03-03T22:07:31.607Z,71.97
2019-03-03T22:10:00.656Z,73.20
2019-03-03T22:12:29.754Z,68.67
2019-03-03T22:14:58.913Z,71.65
2019-03-03T22:17:28.063Z,70.05
2019-03-03T22:19:57.723Z,74.00
2019-03-03T22:22:26.800Z,76.45
2019-03-03T22:24:56.026Z,81.72
2019-03-03T22:27:26.016Z,95.28
2019-03-03T22:29:55.308Z,95.97
2019-03-03T22:32:24.229Z,106.25
2019-03-03T22:34:53.325Z,112.57
2019-03-03T22:37:22.543Z,99.72
2019-03-03T22:39:51.884Z,105.63
2019-03-03T22:42:20.964Z,103.53
2019-03-03T22:44:49.999Z,110.32
2019-03-03T22:47:19.863Z,121.02
2019-03-03T22:49:49.474Z,108.03
2019-03-03T22:52:18.857Z,104.27
2019-03-03T22:54:48.279Z,102.05
2019-03-03T22:57:17.591Z,94.72
2019-03-03T22:59:46.823Z,95.22
2019-03-03T23:02:15.981Z,114.57
2019-03-03T23:04:59.556Z,108.12
2019-03-03T23:07:37.519Z,104.92
2019-03-03T23:10:36.583Z,117.50
2019-03-03T23:13:13.187Z,128.05
2019-03-03T23:16:00.965Z,155.57
2019-03-03T23:19:43.092Z,155.63
2019-03-03T23:23:29.679Z,156.15
2019-03-03T23:25:59.187Z,135.28
2019-03-03T23:28:28.314Z,142.18
2019-03-03T23:30:57.980Z,153.62
2019-03-03T23:33:27.141Z,150.50
2019-03-03T23:35:56.224Z,151.02
2019-03-03T23:38:25.352Z,157.32
2019-03-03T23:40:54.860Z,154.12
2019-03-03T23:43:24.660Z,138.22
2019-03-03T23:45:53.796Z,111.10
2019-03-03T23:48:23.072Z,106.87
2019-03-03T23:50:52.367Z,105.10
2019-03-03T23:53:21.400Z,105.05
2019-03-03T23:55:51.076Z,98.47
2019-03-03T23:58:20.780Z,91.90
